sensor_id;sensor_type;location;lat;lon;timestamp;P1;durP1;ratioP1;P2;durP2;ratioP2
21430;SDS011;10876;49.038;10.608;2022-09-09T03:17:44;4.78;;;2.50;;
21430;SDS011;10876;49.038;10.608;2022-09-09T03:20:11;3.17;;;2.60;;
21430;SDS011;10876;49.038;10.608;2022-09-09T03:22:38;2.58;;;2.10;;
21430;SDS011;10876;49.038;10.608;2022-09-09T03:25:05;4.15;;;2.28;;
21430;SDS011;10876;49.038;10.608;2022-09-09T03:27:32;7.72;;;2.72;;
21430;SDS011;10876;49.038;10.608;2022-09-09T03:29:59;5.13;;;2.10;;
21430;SDS011;10876;49.038;10.608;2022-09-09T03:32:28;3.65;;;2.20;;
21430;SDS011;10876;49.038;10.608;2022-09-09T03:34:57;5.13;;;2.38;;
21430;SDS011;10876;49.038;10.608;2022-09-09T03:37:24;2.75;;;2.15;;
21430;SDS011;10876;49.038;10.608;2022-09-09T03:39:51;5.43;;;2.33;;
21430;SDS011;10876;49.038;10.608;2022-09-09T03:42:19;4.50;;;2.30;;
21430;SDS011;10876;49.038;10.608;2022-09-09T03:44:46;5.82;;;2.10;;
21430;SDS011;10876;49.038;10.608;2022-09-09T03:47:15;3.95;;;2.20;;
21430;SDS011;10876;49.038;10.608;2022-09-09T03:49:43;7.35;;;2.72;;
21430;SDS011;10876;49.038;10.608;2022-09-09T03:52:11;5.63;;;2.65;;
21430;SDS011;10876;49.038;10.608;2022-09-09T03:57:08;5.07;;;2.67;;
21430;SDS011;10876;49.038;10.608;2022-09-09T03:59:36;2.95;;;2.30;;
21430;SDS011;10876;49.038;10.608;2022-09-09T04:02:03;4.30;;;2.80;;
21430;SDS011;10876;49.038;10.608;2022-09-09T04:04:30;4.22;;;2.70;;
21430;SDS011;10876;49.038;10.608;2022-09-09T04:06:57;3.45;;;2.50;;
21430;SDS011;10876;49.038;10.608;2022-09-09T04:09:25;4.05;;;2.70;;
21430;SDS011;10876;49.038;10.608;2022-09-09T04:11:52;2.47;;;2.13;;
21430;SDS011;10876;49.038;10.608;2022-09-09T04:14:20;2.80;;;2.00;;
21430;SDS011;10876;49.038;10.608;2022-09-09T04:16:47;5.72;;;2.05;;
21430;SDS011;10876;49.038;10.608;2022-09-09T04:19:14;2.53;;;1.70;;
21430;SDS011;10876;49.038;10.608;2022-09-09T04:21:41;3.53;;;2.03;;
21430;SDS011;10876;49.038;10.608;2022-09-09T04:24:08;3.97;;;2.00;;
21430;SDS011;10876;49.038;10.608;2022-09-09T04:26:36;2.35;;;1.75;;
21430;SDS011;10876;49.038;10.608;2022-09-09T04:29:04;2.70;;;2.00;;
21430;SDS011;10876;49.038;10.608;2022-09-09T04:31:32;3.78;;;2.17;;
21430;SDS011;10876;49.038;10.608;2022-09-09T04:33:58;4.70;;;2.50;;
21430;SDS011;10876;49.038;10.608;2022-09-09T04:36:30;2.25;;;1.95;;
21430;SDS011;10876;49.038;10.608;2022-09-09T04:38:57;2.75;;;2.15;;
21430;SDS011;10876;49.038;10.608;2022-09-09T04:41:24;6.45;;;2.38;;
21430;SDS011;10876;49.038;10.608;2022-09-09T04:43:52;3.53;;;1.67;;
21430;SDS011;10876;49.038;10.608;2022-09-09T04:46:19;3.83;;;2.00;;
21430;SDS011;10876;49.038;10.608;2022-09-09T04:48:45;2.92;;;2.00;;
21430;SDS011;10876;49.038;10.608;2022-09-09T04:51:13;4.65;;;2.05;;
21430;SDS011;10876;49.038;10.608;2022-09-09T04:53:40;2.42;;;2.00;;
21430;SDS011;10876;49.038;10.608;2022-09-09T04:56:07;4.05;;;2.60;;
21430;SDS011;10876;49.038;10.608;2022-09-09T04:58:36;4.10;;;2.50;;
21430;SDS011;10876;49.038;10.608;2022-09-09T05:01:06;3.83;;;2.40;;
21430;SDS011;10876;49.038;10.608;2022-09-09T05:03:33;2.63;;;2.25;;
21430;SDS011;10876;49.038;10.608;2022-09-09T05:06:04;4.28;;;2.38;;
21430;SDS011;10876;49.038;10.608;2022-09-09T05:08:33;6.22;;;2.25;;
21430;SDS011;10876;49.038;10.608;2022-09-09T05:11:00;3.10;;;1.98;;
21430;SDS011;10876;49.038;10.608;2022-09-09T05:13:28;5.00;;;2.10;;
21430;SDS011;10876;49.038;10.608;2022-09-09T05:15:56;4.88;;;2.00;;
21430;SDS011;10876;49.038;10.608;2022-09-09T05:18:25;4.18;;;1.83;;
21430;SDS011;10876;49.038;10.608;2022-09-09T05:20:51;2.30;;;2.00;;
21430;SDS011;10876;49.038;10.608;2022-09-09T05:23:18;2.40;;;2.15;;
21430;SDS011;10876;49.038;10.608;2022-09-09T05:25:54;3.28;;;1.92;;
21430;SDS011;10876;49.038;10.608;2022-09-09T05:28:22;4.10;;;2.10;;
21430;SDS011;10876;49.038;10.608;2022-09-09T05:30:54;3.60;;;1.98;;
21430;SDS011;10876;49.038;10.608;2022-09-09T05:33:22;4.07;;;2.00;;
21430;SDS011;10876;49.038;10.608;2022-09-09T05:35:55;3.05;;;1.95;;
21430;SDS011;10876;49.038;10.608;2022-09-09T05:38:26;2.70;;;2.05;;
21430;SDS011;10876;49.038;10.608;2022-09-09T05:40:54;3.00;;;1.90;;
21430;SDS011;10876;49.038;10.608;2022-09-09T05:43:21;4.18;;;2.05;;
21430;SDS011;10876;49.038;10.608;2022-09-09T05:45:47;5.43;;;1.80;;
21430;SDS011;10876;49.038;10.608;2022-09-09T05:48:15;4.25;;;2.00;;
21430;SDS011;10876;49.038;10.608;2022-09-09T05:50:43;3.97;;;2.30;;
21430;SDS011;10876;49.038;10.608;2022-09-09T05:53:19;2.88;;;2.22;;
21430;SDS011;10876;49.038;10.608;2022-09-09T05:55:46;4.30;;;2.28;;
21430;SDS011;10876;49.038;10.608;2022-09-09T05:58:13;2.38;;;2.03;;
21430;SDS011;10876;49.038;10.608;2022-09-09T06:00:45;4.95;;;2.60;;
21430;SDS011;10876;49.038;10.608;2022-09-09T06:03:13;4.13;;;2.08;;
21430;SDS011;10876;49.038;10.608;2022-09-09T06:05:42;3.28;;;2.30;;
21430;SDS011;10876;49.038;10.608;2022-09-09T06:08:10;3.95;;;2.50;;
21430;SDS011;10876;49.038;10.608;2022-09-09T06:10:37;3.55;;;2.55;;
21430;SDS011;10876;49.038;10.608;2022-09-09T06:13:04;5.80;;;2.53;;
21430;SDS011;10876;49.038;10.608;2022-09-09T06:15:30;6.00;;;2.58;;
21430;SDS011;10876;49.038;10.608;2022-09-09T06:17:57;5.20;;;2.58;;
21430;SDS011;10876;49.038;10.608;2022-09-09T06:20:24;7.25;;;2.63;;
21430;SDS011;10876;49.038;10.608;2022-09-09T06:22:52;6.25;;;2.50;;
21430;SDS011;10876;49.038;10.608;2022-09-09T06:25:19;6.10;;;2.50;;
21430;SDS011;10876;49.038;10.608;2022-09-09T06:27:48;3.45;;;2.55;;
21430;SDS011;10876;49.038;10.608;2022-09-09T06:30:16;4.10;;;2.55;;
21430;SDS011;10876;49.038;10.608;2022-09-09T06:32:43;5.50;;;2.30;;
21430;SDS011;10876;49.038;10.608;2022-09-09T06:35:10;3.72;;;2.55;;
21430;SDS011;10876;49.038;10.608;2022-09-09T06:37:36;3.78;;;2.50;;
21430;SDS011;10876;49.038;10.608;2022-09-09T06:40:05;3.55;;;2.63;;
21430;SDS011;10876;49.038;10.608;2022-09-09T06:42:33;3.55;;;2.20;;
21430;SDS011;10876;49.038;10.608;2022-09-09T06:44:59;3.80;;;2.17;;
21430;SDS011;10876;49.038;10.608;2022-09-09T06:47:27;3.53;;;2.30;;
21430;SDS011;10876;49.038;10.608;2022-09-09T06:49:55;3.50;;;2.17;;
21430;SDS011;10876;49.038;10.608;2022-09-09T06:52:22;4.78;;;2.17;;
21430;SDS011;10876;49.038;10.608;2022-09-09T06:54:49;5.90;;;2.10;;
21430;SDS011;10876;49.038;10.608;2022-09-09T06:57:17;2.35;;;2.13;;
21430;SDS011;10876;49.038;10.608;2022-09-09T06:59:44;3.67;;;2.20;;
21430;SDS011;10876;49.038;10.608;2022-09-09T07:02:11;5.63;;;2.22;;
21430;SDS011;10876;49.038;10.608;2022-09-09T07:04:37;3.70;;;2.40;;
21430;SDS011;10876;49.038;10.608;2022-09-09T07:07:04;2.75;;;2.10;;
21430;SDS011;10876;49.038;10.608;2022-09-09T07:09:31;6.10;;;2.42;;
21430;SDS011;10876;49.038;10.608;2022-09-09T07:11:58;3.55;;;1.77;;
21430;SDS011;10876;49.038;10.608;2022-09-09T07:14:26;2.97;;;2.10;;
21430;SDS011;10876;49.038;10.608;2022-09-09T07:16:53;4.25;;;2.15;;
21430;SDS011;10876;49.038;10.608;2022-09-09T07:19:20;3.83;;;2.20;;
21430;SDS011;10876;49.038;10.608;2022-09-09T07:21:46;3.13;;;2.00;;
21430;SDS011;10876;49.038;10.608;2022-09-09T07:24:13;3.38;;;1.70;;
21430;SDS011;10876;49.038;10.608;2022-09-09T07:26:40;4.22;;;1.63;;
21430;SDS011;10876;49.038;10.608;2022-09-09T07:29:07;3.88;;;1.83;;
21430;SDS011;10876;49.038;10.608;2022-09-09T07:31:37;3.08;;;1.40;;
21430;SDS011;10876;49.038;10.608;2022-09-09T07:34:05;2.03;;;1.55;;
21430;SDS011;10876;49.038;10.608;2022-09-09T07:36:33;2.53;;;1.60;;
21430;SDS011;10876;49.038;10.608;2022-09-09T07:39:01;2.08;;;1.50;;
21430;SDS011;10876;49.038;10.608;2022-09-09T07:41:48;5.13;;;1.60;;
21430;SDS011;10876;49.038;10.608;2022-09-09T07:44:16;4.18;;;1.50;;
21430;SDS011;10876;49.038;10.608;2022-09-09T07:46:48;6.82;;;1.40;;
21430;SDS011;10876;49.038;10.608;2022-09-09T07:49:15;4.32;;;1.90;;
21430;SDS011;10876;49.038;10.608;2022-09-09T07:51:43;6.47;;;2.42;;
21430;SDS011;10876;49.038;10.608;2022-09-09T07:54:12;5.50;;;2.30;;
21430;SDS011;10876;49.038;10.608;2022-09-09T07:56:40;3.70;;;1.90;;
21430;SDS011;10876;49.038;10.608;2022-09-09T07:59:08;3.78;;;1.95;;
21430;SDS011;10876;49.038;10.608;2022-09-09T08:01:35;4.88;;;2.05;;
21430;SDS011;10876;49.038;10.608;2022-09-09T08:04:06;2.00;;;1.17;;
21430;SDS011;10876;49.038;10.608;2022-09-09T08:06:34;2.42;;;1.20;;
21430;SDS011;10876;49.038;10.608;2022-09-09T08:09:03;4.40;;;1.58;;
21430;SDS011;10876;49.038;10.608;2022-09-09T08:11:30;2.47;;;1.40;;
21430;SDS011;10876;49.038;10.608;2022-09-09T08:13:58;5.32;;;1.58;;
21430;SDS011;10876;49.038;10.608;2022-09-09T08:16:26;3.75;;;1.60;;
21430;SDS011;10876;49.038;10.608;2022-09-09T08:18:53;3.95;;;1.45;;
21430;SDS011;10876;49.038;10.608;2022-09-09T08:21:22;3.85;;;1.55;;
21430;SDS011;10876;49.038;10.608;2022-09-09T08:23:52;2.75;;;1.75;;
21430;SDS011;10876;49.038;10.608;2022-09-09T08:26:20;5.07;;;1.50;;
21430;SDS011;10876;49.038;10.608;2022-09-09T08:28:48;4.53;;;1.60;;
21430;SDS011;10876;49.038;10.608;2022-09-09T08:31:17;2.85;;;1.50;;
21430;SDS011;10876;49.038;10.608;2022-09-09T08:33:45;5.35;;;1.70;;
21430;SDS011;10876;49.038;10.608;2022-09-09T08:36:13;2.15;;;1.38;;
21430;SDS011;10876;49.038;10.608;2022-09-09T08:38:43;2.55;;;1.40;;
21430;SDS011;10876;49.038;10.608;2022-09-09T08:41:28;2.75;;;1.20;;
21430;SDS011;10876;49.038;10.608;2022-09-09T08:44:06;4.75;;;1.33;;
21430;SDS011;10876;49.038;10.608;2022-09-09T08:46:39;4.88;;;1.20;;
21430;SDS011;10876;49.038;10.608;2022-09-09T08:52:12;2.67;;;1.20;;
21430;SDS011;10876;49.038;10.608;2022-09-09T08:54:46;2.72;;;1.13;;
21430;SDS011;10876;49.038;10.608;2022-09-09T08:57:14;1.70;;;1.00;;
21430;SDS011;10876;49.038;10.608;2022-09-09T08:59:49;6.18;;;3.17;;
21430;SDS011;10876;49.038;10.608;2022-09-09T09:02:17;3.58;;;2.13;;
21430;SDS011;10876;49.038;10.608;2022-09-09T09:04:52;6.05;;;2.97;;
21430;SDS011;10876;49.038;10.608;2022-09-09T09:07:37;4.13;;;1.80;;
21430;SDS011;10876;49.038;10.608;2022-09-09T09:10:20;3.97;;;0.90;;
21430;SDS011;10876;49.038;10.608;2022-09-09T09:12:58;3.53;;;1.73;;
21430;SDS011;10876;49.038;10.608;2022-09-09T09:15:28;2.83;;;1.05;;
21430;SDS011;10876;49.038;10.608;2022-09-09T09:18:02;1.75;;;0.70;;
21430;SDS011;10876;49.038;10.608;2022-09-09T09:20:30;2.05;;;1.10;;
21430;SDS011;10876;49.038;10.608;2022-09-09T09:23:03;2.88;;;0.93;;
21430;SDS011;10876;49.038;10.608;2022-09-09T09:25:33;3.65;;;0.80;;
21430;SDS011;10876;49.038;10.608;2022-09-09T09:28:10;4.30;;;0.90;;
21430;SDS011;10876;49.038;10.608;2022-09-09T09:30:42;1.23;;;0.70;;
21430;SDS011;10876;49.038;10.608;2022-09-09T09:33:15;1.48;;;0.75;;
21430;SDS011;10876;49.038;10.608;2022-09-09T09:35:48;0.93;;;0.75;;
21430;SDS011;10876;49.038;10.608;2022-09-09T09:38:16;4.32;;;0.77;;
21430;SDS011;10876;49.038;10.608;2022-09-09T09:40:49;3.78;;;0.80;;
21430;SDS011;10876;49.038;10.608;2022-09-09T09:43:20;5.55;;;0.80;;
21430;SDS011;10876;49.038;10.608;2022-09-09T09:45:50;3.60;;;0.82;;
21430;SDS011;10876;49.038;10.608;2022-09-09T09:48:17;3.05;;;0.70;;
21430;SDS011;10876;49.038;10.608;2022-09-09T09:50:48;2.22;;;0.52;;
21430;SDS011;10876;49.038;10.608;2022-09-09T09:53:18;1.63;;;0.80;;
21430;SDS011;10876;49.038;10.608;2022-09-09T09:55:52;1.73;;;0.80;;
21430;SDS011;10876;49.038;10.608;2022-09-09T09:58:22;2.53;;;0.70;;
21430;SDS011;10876;49.038;10.608;2022-09-09T10:00:51;3.00;;;0.70;;
21430;SDS011;10876;49.038;10.608;2022-09-09T10:03:23;0.98;;;0.60;;
21430;SDS011;10876;49.038;10.608;2022-09-09T10:05:53;4.30;;;0.70;;
21430;SDS011;10876;49.038;10.608;2022-09-09T10:08:21;3.13;;;0.65;;
21430;SDS011;10876;49.038;10.608;2022-09-09T10:10:55;2.33;;;0.60;;
21430;SDS011;10876;49.038;10.608;2022-09-09T10:13:29;1.48;;;0.60;;
21430;SDS011;10876;49.038;10.608;2022-09-09T10:16:09;4.80;;;0.60;;
21430;SDS011;10876;49.038;10.608;2022-09-09T10:18:50;4.80;;;1.23;;
21430;SDS011;10876;49.038;10.608;2022-09-09T10:24:18;2.90;;;1.00;;
21430;SDS011;10876;49.038;10.608;2022-09-09T10:27:00;4.88;;;1.02;;
21430;SDS011;10876;49.038;10.608;2022-09-09T10:29:39;5.05;;;1.10;;
21430;SDS011;10876;49.038;10.608;2022-09-09T10:32:27;3.10;;;1.10;;
21430;SDS011;10876;49.038;10.608;2022-09-09T10:35:02;3.33;;;0.88;;
21430;SDS011;10876;49.038;10.608;2022-09-09T10:37:41;2.28;;;0.82;;
21430;SDS011;10876;49.038;10.608;2022-09-09T10:40:31;1.55;;;0.73;;
21430;SDS011;10876;49.038;10.608;2022-09-09T10:43:12;1.65;;;0.60;;
21430;SDS011;10876;49.038;10.608;2022-09-09T10:45:54;3.10;;;1.20;;
21430;SDS011;10876;49.038;10.608;2022-09-09T10:48:35;3.58;;;0.80;;
21430;SDS011;10876;49.038;10.608;2022-09-09T10:51:23;2.95;;;0.82;;
21430;SDS011;10876;49.038;10.608;2022-09-09T10:54:01;1.55;;;0.40;;
21430;SDS011;10876;49.038;10.608;2022-09-09T10:56:40;1.25;;;0.60;;
21430;SDS011;10876;49.038;10.608;2022-09-09T10:59:13;1.67;;;0.73;;
21430;SDS011;10876;49.038;10.608;2022-09-09T11:01:47;2.55;;;1.42;;
21430;SDS011;10876;49.038;10.608;2022-09-09T11:04:19;3.78;;;0.80;;
21430;SDS011;10876;49.038;10.608;2022-09-09T11:06:50;2.80;;;1.00;;
21430;SDS011;10876;49.038;10.608;2022-09-09T11:09:21;6.85;;;0.90;;
21430;SDS011;10876;49.038;10.608;2022-09-09T11:11:52;3.53;;;0.65;;
21430;SDS011;10876;49.038;10.608;2022-09-09T11:14:24;4.50;;;1.08;;
21430;SDS011;10876;49.038;10.608;2022-09-09T11:16:58;3.47;;;0.88;;
21430;SDS011;10876;49.038;10.608;2022-09-09T11:19:28;1.83;;;1.00;;
21430;SDS011;10876;49.038;10.608;2022-09-09T11:21:59;3.33;;;1.05;;
21430;SDS011;10876;49.038;10.608;2022-09-09T11:24:31;5.00;;;1.08;;
21430;SDS011;10876;49.038;10.608;2022-09-09T11:27:03;2.50;;;1.05;;
21430;SDS011;10876;49.038;10.608;2022-09-09T11:33:04;2.95;;;0.70;;
21430;SDS011;10876;49.038;10.608;2022-09-09T11:35:56;2.65;;;0.50;;
21430;SDS011;10876;49.038;10.608;2022-09-09T11:38:35;2.15;;;0.70;;
21430;SDS011;10876;49.038;10.608;2022-09-09T11:41:10;4.75;;;0.70;;
21430;SDS011;10876;49.038;10.608;2022-09-09T11:43:39;2.95;;;0.63;;
21430;SDS011;10876;49.038;10.608;2022-09-09T11:46:09;3.53;;;0.80;;
21430;SDS011;10876;49.038;10.608;2022-09-09T11:48:39;0.88;;;0.60;;
21430;SDS011;10876;49.038;10.608;2022-09-09T11:51:11;1.27;;;0.60;;
21430;SDS011;10876;49.038;10.608;2022-09-09T11:53:48;1.48;;;0.73;;
21430;SDS011;10876;49.038;10.608;2022-09-09T11:56:24;2.63;;;0.80;;
21430;SDS011;10876;49.038;10.608;2022-09-09T11:58:54;1.00;;;0.70;;
21430;SDS011;10876;49.038;10.608;2022-09-09T12:04:28;2.50;;;0.70;;
21430;SDS011;10876;49.038;10.608;2022-09-09T12:06:59;3.60;;;0.60;;
21430;SDS011;10876;49.038;10.608;2022-09-09T12:09:29;4.07;;;0.80;;
21430;SDS011;10876;49.038;10.608;2022-09-09T12:12:06;0.70;;;0.57;;
21430;SDS011;10876;49.038;10.608;2022-09-09T12:14:54;1.48;;;0.60;;
21430;SDS011;10876;49.038;10.608;2022-09-09T12:17:26;1.75;;;0.75;;
21430;SDS011;10876;49.038;10.608;2022-09-09T12:20:08;1.85;;;0.50;;
21430;SDS011;10876;49.038;10.608;2022-09-09T12:22:45;2.28;;;0.60;;
21430;SDS011;10876;49.038;10.608;2022-09-09T12:25:31;1.23;;;0.60;;
21430;SDS011;10876;49.038;10.608;2022-09-09T12:28:09;1.13;;;0.57;;
21430;SDS011;10876;49.038;10.608;2022-09-09T12:30:43;1.73;;;0.80;;
21430;SDS011;10876;49.038;10.608;2022-09-09T12:33:17;1.17;;;0.50;;
21430;SDS011;10876;49.038;10.608;2022-09-09T12:35:45;2.92;;;0.70;;
21430;SDS011;10876;49.038;10.608;2022-09-09T12:38:19;3.58;;;0.80;;
21430;SDS011;10876;49.038;10.608;2022-09-09T12:40:54;1.02;;;0.60;;
21430;SDS011;10876;49.038;10.608;2022-09-09T12:43:23;3.33;;;0.77;;
21430;SDS011;10876;49.038;10.608;2022-09-09T12:45:51;2.83;;;0.80;;
21430;SDS011;10876;49.038;10.608;2022-09-09T12:48:26;1.55;;;0.70;;
21430;SDS011;10876;49.038;10.608;2022-09-09T12:50:57;3.70;;;0.80;;
21430;SDS011;10876;49.038;10.608;2022-09-09T12:53:26;1.13;;;0.50;;
21430;SDS011;10876;49.038;10.608;2022-09-09T12:55:55;3.20;;;0.57;;
21430;SDS011;10876;49.038;10.608;2022-09-09T12:58:24;1.85;;;0.60;;
21430;SDS011;10876;49.038;10.608;2022-09-09T13:00:54;2.95;;;0.60;;
21430;SDS011;10876;49.038;10.608;2022-09-09T13:03:22;2.55;;;0.60;;
21430;SDS011;10876;49.038;10.608;2022-09-09T13:05:51;3.05;;;1.20;;
21430;SDS011;10876;49.038;10.608;2022-09-09T13:08:19;12.90;;;7.32;;
21430;SDS011;10876;49.038;10.608;2022-09-09T13:10:47;3.53;;;1.20;;
21430;SDS011;10876;49.038;10.608;2022-09-09T13:13:21;1.98;;;1.20;;
21430;SDS011;10876;49.038;10.608;2022-09-09T13:15:50;2.85;;;0.43;;
21430;SDS011;10876;49.038;10.608;2022-09-09T13:18:19;1.60;;;0.73;;
21430;SDS011;10876;49.038;10.608;2022-09-09T13:20:50;3.53;;;0.60;;
21430;SDS011;10876;49.038;10.608;2022-09-09T13:23:18;1.08;;;0.35;;
21430;SDS011;10876;49.038;10.608;2022-09-09T13:25:55;2.97;;;0.70;;
21430;SDS011;10876;49.038;10.608;2022-09-09T13:28:24;2.08;;;0.50;;
21430;SDS011;10876;49.038;10.608;2022-09-09T13:30:58;2.45;;;0.70;;
21430;SDS011;10876;49.038;10.608;2022-09-09T13:33:30;1.50;;;0.63;;
21430;SDS011;10876;49.038;10.608;2022-09-09T13:36:00;2.20;;;0.50;;
21430;SDS011;10876;49.038;10.608;2022-09-09T13:38:29;2.03;;;0.50;;
21430;SDS011;10876;49.038;10.608;2022-09-09T13:40:59;3.45;;;0.55;;
21430;SDS011;10876;49.038;10.608;2022-09-09T13:43:28;3.80;;;0.45;;
21430;SDS011;10876;49.038;10.608;2022-09-09T13:45:58;1.27;;;0.40;;
21430;SDS011;10876;49.038;10.608;2022-09-09T13:48:26;2.17;;;0.50;;
21430;SDS011;10876;49.038;10.608;2022-09-09T13:51:00;1.13;;;0.38;;
21430;SDS011;10876;49.038;10.608;2022-09-09T13:53:30;0.40;;;0.20;;
21430;SDS011;10876;49.038;10.608;2022-09-09T13:55:58;3.78;;;0.50;;
21430;SDS011;10876;49.038;10.608;2022-09-09T13:58:26;0.75;;;0.30;;
21430;SDS011;10876;49.038;10.608;2022-09-09T14:00:53;1.27;;;0.30;;
21430;SDS011;10876;49.038;10.608;2022-09-09T14:03:20;1.85;;;1.60;;
21430;SDS011;10876;49.038;10.608;2022-09-09T14:05:47;1.60;;;0.40;;
21430;SDS011;10876;49.038;10.608;2022-09-09T14:08:20;1.00;;;0.20;;
21430;SDS011;10876;49.038;10.608;2022-09-09T14:10:50;1.33;;;0.50;;
21430;SDS011;10876;49.038;10.608;2022-09-09T14:13:17;0.80;;;0.35;;
21430;SDS011;10876;49.038;10.608;2022-09-09T14:15:44;0.68;;;0.43;;
21430;SDS011;10876;49.038;10.608;2022-09-09T14:18:11;0.93;;;0.40;;
21430;SDS011;10876;49.038;10.608;2022-09-09T14:20:39;1.92;;;0.40;;
21430;SDS011;10876;49.038;10.608;2022-09-09T14:23:07;2.35;;;0.75;;
21430;SDS011;10876;49.038;10.608;2022-09-09T14:25:40;1.05;;;0.50;;
21430;SDS011;10876;49.038;10.608;2022-09-09T14:28:08;0.70;;;0.40;;
21430;SDS011;10876;49.038;10.608;2022-09-09T14:30:39;1.13;;;0.43;;
21430;SDS011;10876;49.038;10.608;2022-09-09T14:33:07;3.40;;;0.70;;
21430;SDS011;10876;49.038;10.608;2022-09-09T14:35:34;1.08;;;0.57;;
21430;SDS011;10876;49.038;10.608;2022-09-09T14:38:01;0.43;;;0.40;;
21430;SDS011;10876;49.038;10.608;2022-09-09T14:40:28;0.93;;;0.32;;
21430;SDS011;10876;49.038;10.608;2022-09-09T14:42:56;1.33;;;0.30;;
21430;SDS011;10876;49.038;10.608;2022-09-09T14:45:24;0.60;;;0.40;;
21430;SDS011;10876;49.038;10.608;2022-09-09T14:47:51;3.92;;;0.43;;
21430;SDS011;10876;49.038;10.608;2022-09-09T14:50:18;2.00;;;0.40;;
21430;SDS011;10876;49.038;10.608;2022-09-09T14:52:45;1.65;;;0.25;;
21430;SDS011;10876;49.038;10.608;2022-09-09T14:55:12;0.88;;;0.40;;
21430;SDS011;10876;49.038;10.608;2022-09-09T14:57:40;0.75;;;0.40;;
21430;SDS011;10876;49.038;10.608;2022-09-09T15:00:09;0.68;;;0.40;;
21430;SDS011;10876;49.038;10.608;2022-09-09T15:02:37;3.53;;;1.58;;
21430;SDS011;10876;49.038;10.608;2022-09-09T15:05:04;0.40;;;0.40;;
21430;SDS011;10876;49.038;10.608;2022-09-09T15:07:32;1.77;;;0.35;;
21430;SDS011;10876;49.038;10.608;2022-09-09T15:09:59;1.17;;;0.38;;
21430;SDS011;10876;49.038;10.608;2022-09-09T15:12:25;1.08;;;0.40;;
21430;SDS011;10876;49.038;10.608;2022-09-09T15:14:53;1.95;;;0.45;;
21430;SDS011;10876;49.038;10.608;2022-09-09T15:17:22;0.77;;;0.40;;
21430;SDS011;10876;49.038;10.608;2022-09-09T15:19:52;1.40;;;0.57;;
21430;SDS011;10876;49.038;10.608;2022-09-09T15:22:20;1.92;;;0.70;;
21430;SDS011;10876;49.038;10.608;2022-09-09T15:24:47;2.17;;;0.45;;
21430;SDS011;10876;49.038;10.608;2022-09-09T15:27:14;2.45;;;0.63;;
21430;SDS011;10876;49.038;10.608;2022-09-09T15:29:40;0.52;;;0.50;;
21430;SDS011;10876;49.038;10.608;2022-09-09T15:32:09;1.55;;;0.73;;
21430;SDS011;10876;49.038;10.608;2022-09-09T15:34:38;2.88;;;0.60;;
21430;SDS011;10876;49.038;10.608;2022-09-09T15:37:05;2.67;;;0.60;;
21430;SDS011;10876;49.038;10.608;2022-09-09T15:39:33;1.30;;;0.50;;
21430;SDS011;10876;49.038;10.608;2022-09-09T15:42:00;0.98;;;0.57;;
21430;SDS011;10876;49.038;10.608;2022-09-09T15:44:27;0.95;;;0.50;;
21430;SDS011;10876;49.038;10.608;2022-09-09T15:46:54;1.85;;;0.57;;
21430;SDS011;10876;49.038;10.608;2022-09-09T15:49:21;1.63;;;0.60;;
21430;SDS011;10876;49.038;10.608;2022-09-09T15:51:52;0.63;;;0.52;;
21430;SDS011;10876;49.038;10.608;2022-09-09T15:54:21;1.55;;;0.98;;
21430;SDS011;10876;49.038;10.608;2022-09-09T15:56:52;1.75;;;0.50;;
21430;SDS011;10876;49.038;10.608;2022-09-09T15:59:21;1.20;;;0.50;;
21430;SDS011;10876;49.038;10.608;2022-09-09T16:01:50;3.38;;;0.40;;
21430;SDS011;10876;49.038;10.608;2022-09-09T16:04:17;2.47;;;0.60;;
21430;SDS011;10876;49.038;10.608;2022-09-09T16:06:48;2.45;;;0.60;;
21430;SDS011;10876;49.038;10.608;2022-09-09T16:09:19;2.25;;;0.40;;
21430;SDS011;10876;49.038;10.608;2022-09-09T16:11:46;3.70;;;0.60;;
21430;SDS011;10876;49.038;10.608;2022-09-09T16:14:13;1.48;;;0.55;;
21430;SDS011;10876;49.038;10.608;2022-09-09T16:16:41;1.90;;;0.50;;
21430;SDS011;10876;49.038;10.608;2022-09-09T16:19:09;1.70;;;0.30;;
21430;SDS011;10876;49.038;10.608;2022-09-09T16:21:38;0.82;;;0.50;;
21430;SDS011;10876;49.038;10.608;2022-09-09T16:24:07;0.93;;;0.40;;
21430;SDS011;10876;49.038;10.608;2022-09-09T16:26:41;0.60;;;0.40;;
21430;SDS011;10876;49.038;10.608;2022-09-09T16:29:11;0.52;;;0.40;;
21430;SDS011;10876;49.038;10.608;2022-09-09T16:31:39;0.80;;;0.40;;
21430;SDS011;10876;49.038;10.608;2022-09-09T16:34:06;1.65;;;0.40;;
21430;SDS011;10876;49.038;10.608;2022-09-09T16:36:34;2.00;;;0.40;;
21430;SDS011;10876;49.038;10.608;2022-09-09T16:39:03;2.25;;;0.65;;
21430;SDS011;10876;49.038;10.608;2022-09-09T16:41:32;1.77;;;0.40;;
21430;SDS011;10876;49.038;10.608;2022-09-09T16:44:01;3.10;;;0.38;;
21430;SDS011;10876;49.038;10.608;2022-09-09T16:46:34;1.45;;;1.00;;
21430;SDS011;10876;49.038;10.608;2022-09-09T16:49:05;1.27;;;0.40;;
21430;SDS011;10876;49.038;10.608;2022-09-09T16:51:33;2.25;;;0.50;;
21430;SDS011;10876;49.038;10.608;2022-09-09T16:54:03;0.75;;;0.30;;
21430;SDS011;10876;49.038;10.608;2022-09-09T16:56:32;2.25;;;0.40;;
21430;SDS011;10876;49.038;10.608;2022-09-09T16:59:03;2.05;;;0.60;;
21430;SDS011;10876;49.038;10.608;2022-09-09T17:01:36;1.85;;;0.90;;
21430;SDS011;10876;49.038;10.608;2022-09-09T17:04:06;1.95;;;0.70;;
21430;SDS011;10876;49.038;10.608;2022-09-09T17:06:34;1.48;;;0.60;;
21430;SDS011;10876;49.038;10.608;2022-09-09T17:09:03;4.18;;;1.63;;
21430;SDS011;10876;49.038;10.608;2022-09-09T17:11:31;1.83;;;0.70;;
21430;SDS011;10876;49.038;10.608;2022-09-09T17:13:58;2.08;;;0.70;;
21430;SDS011;10876;49.038;10.608;2022-09-09T17:16:29;1.75;;;0.57;;
21430;SDS011;10876;49.038;10.608;2022-09-09T17:18:59;2.40;;;0.60;;
21430;SDS011;10876;49.038;10.608;2022-09-09T17:21:29;1.15;;;0.88;;
21430;SDS011;10876;49.038;10.608;2022-09-09T17:23:57;1.75;;;0.63;;
21430;SDS011;10876;49.038;10.608;2022-09-09T17:26:25;2.05;;;0.60;;
21430;SDS011;10876;49.038;10.608;2022-09-09T17:28:53;3.03;;;0.40;;
21430;SDS011;10876;49.038;10.608;2022-09-09T17:31:23;0.65;;;0.38;;
21430;SDS011;10876;49.038;10.608;2022-09-09T17:33:56;2.17;;;0.60;;
21430;SDS011;10876;49.038;10.608;2022-09-09T17:36:28;2.72;;;0.73;;
21430;SDS011;10876;49.038;10.608;2022-09-09T17:38:59;2.05;;;0.80;;
21430;SDS011;10876;49.038;10.608;2022-09-09T17:41:28;2.03;;;0.50;;
21430;SDS011;10876;49.038;10.608;2022-09-09T17:43:56;0.45;;;0.45;;
21430;SDS011;10876;49.038;10.608;2022-09-09T17:46:25;4.75;;;2.83;;
21430;SDS011;10876;49.038;10.608;2022-09-09T17:48:56;1.77;;;0.90;;
21430;SDS011;10876;49.038;10.608;2022-09-09T17:51:29;1.35;;;0.70;;
21430;SDS011;10876;49.038;10.608;2022-09-09T17:53:59;1.67;;;0.55;;
21430;SDS011;10876;49.038;10.608;2022-09-09T17:56:29;0.73;;;0.50;;
21430;SDS011;10876;49.038;10.608;2022-09-09T17:59:01;3.40;;;1.20;;
21430;SDS011;10876;49.038;10.608;2022-09-09T18:01:31;3.45;;;2.00;;
21430;SDS011;10876;49.038;10.608;2022-09-09T18:04:02;3.63;;;2.15;;
21430;SDS011;10876;49.038;10.608;2022-09-09T18:06:31;2.42;;;1.38;;
21430;SDS011;10876;49.038;10.608;2022-09-09T18:09:02;2.53;;;1.80;;
21430;SDS011;10876;49.038;10.608;2022-09-09T18:11:33;4.13;;;1.30;;
21430;SDS011;10876;49.038;10.608;2022-09-09T18:14:07;1.42;;;0.73;;
21430;SDS011;10876;49.038;10.608;2022-09-09T18:16:37;1.58;;;0.70;;
21430;SDS011;10876;49.038;10.608;2022-09-09T18:19:07;2.13;;;0.82;;
21430;SDS011;10876;49.038;10.608;2022-09-09T18:21:38;1.75;;;0.70;;